sensor_id;sensor_type;location;lat;lon;timestamp;P1;durP1;ratioP1;P2;durP2;ratioP2
20110;SDS011;10216;42.658;23.248;2023-12-20T00:02:16;1.60;;;0.93;;
20110;SDS011;10216;42.658;23.248;2023-12-20T00:04:41;1.40;;;1.30;;
20110;SDS011;10216;42.658;23.248;2023-12-20T00:07:07;1.27;;;1.27;;
20110;SDS011;10216;42.658;23.248;2023-12-20T00:09:32;0.67;;;0.67;;
20110;SDS011;10216;42.658;23.248;2023-12-20T00:11:57;1.17;;;1.17;;
20110;SDS011;10216;42.658;23.248;2023-12-20T00:14:23;0.70;;;0.70;;
20110;SDS011;10216;42.658;23.248;2023-12-20T00:16:48;0.70;;;0.70;;
20110;SDS011;10216;42.658;23.248;2023-12-20T00:19:13;0.53;;;0.53;;
20110;SDS011;10216;42.658;23.248;2023-12-20T00:21:38;0.90;;;0.90;;
20110;SDS011;10216;42.658;23.248;2023-12-20T00:24:04;0.47;;;0.47;;
20110;SDS011;10216;42.658;23.248;2023-12-20T00:26:29;0.63;;;0.53;;
20110;SDS011;10216;42.658;23.248;2023-12-20T00:28:55;0.60;;;0.57;;
20110;SDS011;10216;42.658;23.248;2023-12-20T00:31:20;1.07;;;1.07;;
20110;SDS011;10216;42.658;23.248;2023-12-20T00:33:45;2.60;;;2.47;;
20110;SDS011;10216;42.658;23.248;2023-12-20T00:36:12;1.30;;;1.23;;
20110;SDS011;10216;42.658;23.248;2023-12-20T00:38:37;3.13;;;1.70;;
20110;SDS011;10216;42.658;23.248;2023-12-20T00:41:02;1.23;;;1.20;;
20110;SDS011;10216;42.658;23.248;2023-12-20T00:43:28;1.60;;;1.50;;
20110;SDS011;10216;42.658;23.248;2023-12-20T00:45:53;1.63;;;1.00;;
20110;SDS011;10216;42.658;23.248;2023-12-20T00:48:18;2.03;;;0.60;;
20110;SDS011;10216;42.658;23.248;2023-12-20T00:50:44;1.10;;;0.60;;
20110;SDS011;10216;42.658;23.248;2023-12-20T00:53:09;0.80;;;0.80;;
20110;SDS011;10216;42.658;23.248;2023-12-20T00:55:34;0.43;;;0.43;;
20110;SDS011;10216;42.658;23.248;2023-12-20T00:58:00;0.30;;;0.30;;
20110;SDS011;10216;42.658;23.248;2023-12-20T01:00:25;0.73;;;0.73;;
20110;SDS011;10216;42.658;23.248;2023-12-20T01:02:50;0.97;;;0.93;;
20110;SDS011;10216;42.658;23.248;2023-12-20T01:05:17;0.30;;;0.30;;
20110;SDS011;10216;42.658;23.248;2023-12-20T01:07:42;0.73;;;0.73;;
20110;SDS011;10216;42.658;23.248;2023-12-20T01:10:08;0.37;;;0.37;;
20110;SDS011;10216;42.658;23.248;2023-12-20T01:12:33;0.60;;;0.60;;
20110;SDS011;10216;42.658;23.248;2023-12-20T01:14:58;1.43;;;1.43;;
20110;SDS011;10216;42.658;23.248;2023-12-20T01:17:24;1.17;;;1.07;;
20110;SDS011;10216;42.658;23.248;2023-12-20T01:19:49;1.63;;;1.53;;
20110;SDS011;10216;42.658;23.248;2023-12-20T01:22:14;1.07;;;0.97;;
20110;SDS011;10216;42.658;23.248;2023-12-20T01:24:40;2.33;;;2.07;;
20110;SDS011;10216;42.658;23.248;2023-12-20T01:27:05;1.80;;;1.70;;
20110;SDS011;10216;42.658;23.248;2023-12-20T01:29:30;0.63;;;0.63;;
20110;SDS011;10216;42.658;23.248;2023-12-20T01:31:56;0.77;;;0.77;;
20110;SDS011;10216;42.658;23.248;2023-12-20T01:34:21;1.27;;;1.17;;
20110;SDS011;10216;42.658;23.248;2023-12-20T01:36:46;1.03;;;1.03;;
20110;SDS011;10216;42.658;23.248;2023-12-20T01:39:11;5.40;;;1.20;;
20110;SDS011;10216;42.658;23.248;2023-12-20T01:41:37;1.43;;;1.30;;
20110;SDS011;10216;42.658;23.248;2023-12-20T01:44:02;1.93;;;0.97;;
20110;SDS011;10216;42.658;23.248;2023-12-20T01:46:27;0.30;;;0.30;;
20110;SDS011;10216;42.658;23.248;2023-12-20T01:48:53;0.87;;;0.87;;
20110;SDS011;10216;42.658;23.248;2023-12-20T01:51:18;1.23;;;1.23;;
20110;SDS011;10216;42.658;23.248;2023-12-20T01:53:44;1.30;;;1.30;;
20110;SDS011;10216;42.658;23.248;2023-12-20T01:56:09;0.80;;;0.80;;
20110;SDS011;10216;42.658;23.248;2023-12-20T01:58:37;1.13;;;1.13;;
20110;SDS011;10216;42.658;23.248;2023-12-20T02:01:04;1.17;;;1.10;;
20110;SDS011;10216;42.658;23.248;2023-12-20T02:03:29;1.53;;;1.43;;
20110;SDS011;10216;42.658;23.248;2023-12-20T02:05:54;0.83;;;0.83;;
20110;SDS011;10216;42.658;23.248;2023-12-20T02:08:20;1.37;;;1.27;;
20110;SDS011;10216;42.658;23.248;2023-12-20T02:10:45;0.50;;;0.50;;
20110;SDS011;10216;42.658;23.248;2023-12-20T02:13:10;0.97;;;0.87;;
20110;SDS011;10216;42.658;23.248;2023-12-20T02:15:36;1.20;;;1.00;;
20110;SDS011;10216;42.658;23.248;2023-12-20T02:18:06;0.90;;;0.90;;
20110;SDS011;10216;42.658;23.248;2023-12-20T02:20:32;4.50;;;2.30;;
20110;SDS011;10216;42.658;23.248;2023-12-20T02:22:57;4.63;;;2.90;;
20110;SDS011;10216;42.658;23.248;2023-12-20T02:25:22;1.17;;;0.43;;
20110;SDS011;10216;42.658;23.248;2023-12-20T02:27:48;0.87;;;0.87;;
20110;SDS011;10216;42.658;23.248;2023-12-20T02:30:14;3.40;;;1.43;;
20110;SDS011;10216;42.658;23.248;2023-12-20T02:32:39;2.57;;;1.43;;
20110;SDS011;10216;42.658;23.248;2023-12-20T02:35:05;1.90;;;1.80;;
20110;SDS011;10216;42.658;23.248;2023-12-20T02:37:30;1.30;;;1.20;;
20110;SDS011;10216;42.658;23.248;2023-12-20T02:39:55;0.80;;;0.50;;
20110;SDS011;10216;42.658;23.248;2023-12-20T02:42:21;2.17;;;1.50;;
20110;SDS011;10216;42.658;23.248;2023-12-20T02:44:46;1.40;;;1.30;;
20110;SDS011;10216;42.658;23.248;2023-12-20T02:47:11;0.83;;;0.83;;
20110;SDS011;10216;42.658;23.248;2023-12-20T02:49:37;1.33;;;0.90;;
20110;SDS011;10216;42.658;23.248;2023-12-20T02:52:02;0.97;;;0.97;;
20110;SDS011;10216;42.658;23.248;2023-12-20T02:54:27;1.20;;;1.17;;
20110;SDS011;10216;42.658;23.248;2023-12-20T02:56:53;2.57;;;1.30;;
20110;SDS011;10216;42.658;23.248;2023-12-20T02:59:18;3.57;;;1.60;;
20110;SDS011;10216;42.658;23.248;2023-12-20T03:01:44;1.90;;;1.30;;
20110;SDS011;10216;42.658;23.248;2023-12-20T03:04:09;2.43;;;1.30;;
20110;SDS011;10216;42.658;23.248;2023-12-20T03:06:34;1.63;;;1.57;;
20110;SDS011;10216;42.658;23.248;2023-12-20T03:09:00;1.50;;;1.07;;
20110;SDS011;10216;42.658;23.248;2023-12-20T03:11:28;1.00;;;1.00;;
20110;SDS011;10216;42.658;23.248;2023-12-20T03:13:54;0.70;;;0.70;;
20110;SDS011;10216;42.658;23.248;2023-12-20T03:16:19;0.73;;;0.73;;
20110;SDS011;10216;42.658;23.248;2023-12-20T03:18:44;0.50;;;0.50;;
20110;SDS011;10216;42.658;23.248;2023-12-20T03:21:10;1.30;;;1.27;;
20110;SDS011;10216;42.658;23.248;2023-12-20T03:23:35;1.27;;;1.07;;
20110;SDS011;10216;42.658;23.248;2023-12-20T03:26:00;0.97;;;0.97;;
20110;SDS011;10216;42.658;23.248;2023-12-20T03:28:26;1.13;;;1.03;;
20110;SDS011;10216;42.658;23.248;2023-12-20T03:30:51;0.97;;;0.87;;
20110;SDS011;10216;42.658;23.248;2023-12-20T03:33:17;0.80;;;0.80;;
20110;SDS011;10216;42.658;23.248;2023-12-20T03:35:42;3.53;;;1.83;;
20110;SDS011;10216;42.658;23.248;2023-12-20T03:38:07;0.60;;;0.60;;
20110;SDS011;10216;42.658;23.248;2023-12-20T03:40:33;0.50;;;0.47;;
20110;SDS011;10216;42.658;23.248;2023-12-20T03:42:58;1.07;;;1.03;;
20110;SDS011;10216;42.658;23.248;2023-12-20T03:45:23;0.53;;;0.53;;
20110;SDS011;10216;42.658;23.248;2023-12-20T03:47:49;1.47;;;1.20;;
20110;SDS011;10216;42.658;23.248;2023-12-20T03:50:14;1.27;;;0.77;;
20110;SDS011;10216;42.658;23.248;2023-12-20T03:52:40;0.70;;;0.70;;
20110;SDS011;10216;42.658;23.248;2023-12-20T03:55:05;1.80;;;1.67;;
20110;SDS011;10216;42.658;23.248;2023-12-20T03:57:31;0.80;;;0.60;;
20110;SDS011;10216;42.658;23.248;2023-12-20T03:59:56;1.50;;;1.40;;
20110;SDS011;10216;42.658;23.248;2023-12-20T04:02:21;1.27;;;0.83;;
20110;SDS011;10216;42.658;23.248;2023-12-20T04:04:47;0.97;;;0.83;;
20110;SDS011;10216;42.658;23.248;2023-12-20T04:07:12;1.13;;;1.07;;
20110;SDS011;10216;42.658;23.248;2023-12-20T04:09:37;1.63;;;1.13;;
20110;SDS011;10216;42.658;23.248;2023-12-20T04:12:03;1.83;;;1.73;;
20110;SDS011;10216;42.658;23.248;2023-12-20T04:14:28;1.47;;;1.13;;
20110;SDS011;10216;42.658;23.248;2023-12-20T04:16:53;1.93;;;1.80;;
20110;SDS011;10216;42.658;23.248;2023-12-20T04:19:19;1.40;;;1.30;;
20110;SDS011;10216;42.658;23.248;2023-12-20T04:21:44;1.50;;;1.30;;
20110;SDS011;10216;42.658;23.248;2023-12-20T04:24:09;1.53;;;1.43;;
20110;SDS011;10216;42.658;23.248;2023-12-20T04:26:35;2.03;;;1.70;;
20110;SDS011;10216;42.658;23.248;2023-12-20T04:29:00;1.50;;;1.10;;
20110;SDS011;10216;42.658;23.248;2023-12-20T04:31:25;1.73;;;1.63;;
20110;SDS011;10216;42.658;23.248;2023-12-20T04:33:50;0.80;;;0.80;;
20110;SDS011;10216;42.658;23.248;2023-12-20T04:36:16;0.80;;;0.80;;
20110;SDS011;10216;42.658;23.248;2023-12-20T04:38:41;1.97;;;1.60;;
20110;SDS011;10216;42.658;23.248;2023-12-20T04:41:06;0.83;;;0.83;;
20110;SDS011;10216;42.658;23.248;2023-12-20T04:43:32;1.70;;;1.60;;
20110;SDS011;10216;42.658;23.248;2023-12-20T04:45:57;2.03;;;1.93;;
20110;SDS011;10216;42.658;23.248;2023-12-20T04:48:23;2.43;;;1.67;;
20110;SDS011;10216;42.658;23.248;2023-12-20T04:50:48;2.03;;;1.83;;
20110;SDS011;10216;42.658;23.248;2023-12-20T04:53:13;1.10;;;1.10;;
20110;SDS011;10216;42.658;23.248;2023-12-20T04:55:39;1.17;;;1.10;;
20110;SDS011;10216;42.658;23.248;2023-12-20T04:58:04;3.50;;;1.87;;
20110;SDS011;10216;42.658;23.248;2023-12-20T05:00:29;2.10;;;1.63;;
20110;SDS011;10216;42.658;23.248;2023-12-20T05:02:55;1.40;;;0.90;;
20110;SDS011;10216;42.658;23.248;2023-12-20T05:05:20;1.30;;;1.20;;
20110;SDS011;10216;42.658;23.248;2023-12-20T05:07:45;1.03;;;1.00;;
20110;SDS011;10216;42.658;23.248;2023-12-20T05:10:11;0.50;;;0.50;;
20110;SDS011;10216;42.658;23.248;2023-12-20T05:12:36;1.40;;;1.30;;
20110;SDS011;10216;42.658;23.248;2023-12-20T05:15:01;2.97;;;1.80;;
20110;SDS011;10216;42.658;23.248;2023-12-20T05:17:27;2.23;;;2.03;;
20110;SDS011;10216;42.658;23.248;2023-12-20T05:19:52;3.07;;;2.47;;
20110;SDS011;10216;42.658;23.248;2023-12-20T05:22:18;2.87;;;2.43;;
20110;SDS011;10216;42.658;23.248;2023-12-20T05:24:44;2.63;;;2.23;;
20110;SDS011;10216;42.658;23.248;2023-12-20T05:27:09;3.20;;;2.90;;
20110;SDS011;10216;42.658;23.248;2023-12-20T05:29:34;7.57;;;3.80;;
20110;SDS011;10216;42.658;23.248;2023-12-20T05:32:00;10.17;;;6.17;;
20110;SDS011;10216;42.658;23.248;2023-12-20T05:34:25;8.13;;;4.10;;
20110;SDS011;10216;42.658;23.248;2023-12-20T05:36:50;17.60;;;9.57;;
20110;SDS011;10216;42.658;23.248;2023-12-20T05:39:15;5.80;;;4.13;;
20110;SDS011;10216;42.658;23.248;2023-12-20T05:41:41;7.67;;;5.13;;
20110;SDS011;10216;42.658;23.248;2023-12-20T05:44:06;3.83;;;3.33;;
20110;SDS011;10216;42.658;23.248;2023-12-20T05:46:31;6.70;;;4.37;;
20110;SDS011;10216;42.658;23.248;2023-12-20T05:48:57;10.00;;;5.07;;
20110;SDS011;10216;42.658;23.248;2023-12-20T05:51:22;5.60;;;3.97;;
20110;SDS011;10216;42.658;23.248;2023-12-20T05:53:47;4.63;;;3.97;;
20110;SDS011;10216;42.658;23.248;2023-12-20T05:56:15;17.97;;;11.57;;
20110;SDS011;10216;42.658;23.248;2023-12-20T05:58:40;2.93;;;2.63;;
20110;SDS011;10216;42.658;23.248;2023-12-20T06:01:06;4.37;;;3.97;;
20110;SDS011;10216;42.658;23.248;2023-12-20T06:03:32;8.40;;;4.07;;
20110;SDS011;10216;42.658;23.248;2023-12-20T06:05:58;13.37;;;9.67;;
20110;SDS011;10216;42.658;23.248;2023-12-20T06:08:25;3.53;;;2.70;;
20110;SDS011;10216;42.658;23.248;2023-12-20T06:10:50;6.70;;;3.50;;
20110;SDS011;10216;42.658;23.248;2023-12-20T06:13:16;5.73;;;4.57;;
20110;SDS011;10216;42.658;23.248;2023-12-20T06:15:42;4.43;;;3.10;;
20110;SDS011;10216;42.658;23.248;2023-12-20T06:18:07;4.57;;;2.97;;
20110;SDS011;10216;42.658;23.248;2023-12-20T06:20:32;3.77;;;2.60;;
20110;SDS011;10216;42.658;23.248;2023-12-20T06:22:58;5.97;;;2.80;;
20110;SDS011;10216;42.658;23.248;2023-12-20T06:25:23;6.67;;;5.20;;
20110;SDS011;10216;42.658;23.248;2023-12-20T06:27:48;3.57;;;3.27;;
20110;SDS011;10216;42.658;23.248;2023-12-20T06:30:14;5.70;;;4.07;;
20110;SDS011;10216;42.658;23.248;2023-12-20T06:32:39;8.87;;;6.03;;
20110;SDS011;10216;42.658;23.248;2023-12-20T06:35:04;7.30;;;4.93;;
20110;SDS011;10216;42.658;23.248;2023-12-20T06:37:30;7.23;;;5.70;;
20110;SDS011;10216;42.658;23.248;2023-12-20T06:39:55;5.77;;;4.43;;
20110;SDS011;10216;42.658;23.248;2023-12-20T06:42:21;6.83;;;4.40;;
20110;SDS011;10216;42.658;23.248;2023-12-20T06:44:47;7.93;;;6.67;;
20110;SDS011;10216;42.658;23.248;2023-12-20T06:47:13;5.63;;;4.47;;
20110;SDS011;10216;42.658;23.248;2023-12-20T06:49:39;5.73;;;4.67;;
20110;SDS011;10216;42.658;23.248;2023-12-20T06:52:04;9.13;;;4.63;;
20110;SDS011;10216;42.658;23.248;2023-12-20T06:54:30;5.43;;;4.80;;
20110;SDS011;10216;42.658;23.248;2023-12-20T06:56:55;9.07;;;6.83;;
20110;SDS011;10216;42.658;23.248;2023-12-20T06:59:20;5.57;;;5.07;;
20110;SDS011;10216;42.658;23.248;2023-12-20T07:01:48;4.40;;;3.87;;
20110;SDS011;10216;42.658;23.248;2023-12-20T07:04:15;8.83;;;5.97;;
20110;SDS011;10216;42.658;23.248;2023-12-20T07:06:41;7.47;;;3.67;;
20110;SDS011;10216;42.658;23.248;2023-12-20T07:09:06;6.50;;;4.37;;
20110;SDS011;10216;42.658;23.248;2023-12-20T07:11:32;7.33;;;5.10;;
20110;SDS011;10216;42.658;23.248;2023-12-20T07:13:57;4.67;;;3.73;;
20110;SDS011;10216;42.658;23.248;2023-12-20T07:16:22;6.77;;;4.93;;
20110;SDS011;10216;42.658;23.248;2023-12-20T07:18:48;6.13;;;4.60;;
20110;SDS011;10216;42.658;23.248;2023-12-20T07:21:13;4.13;;;3.77;;
20110;SDS011;10216;42.658;23.248;2023-12-20T07:23:38;9.73;;;7.47;;
20110;SDS011;10216;42.658;23.248;2023-12-20T07:26:04;5.23;;;4.93;;
20110;SDS011;10216;42.658;23.248;2023-12-20T07:28:29;6.20;;;4.20;;
20110;SDS011;10216;42.658;23.248;2023-12-20T07:30:55;10.90;;;5.57;;
20110;SDS011;10216;42.658;23.248;2023-12-20T07:33:20;10.10;;;8.73;;
20110;SDS011;10216;42.658;23.248;2023-12-20T07:35:45;11.07;;;7.73;;
20110;SDS011;10216;42.658;23.248;2023-12-20T07:38:10;17.47;;;5.87;;
20110;SDS011;10216;42.658;23.248;2023-12-20T07:40:37;10.77;;;9.23;;
20110;SDS011;10216;42.658;23.248;2023-12-20T07:43:03;14.93;;;8.73;;
20110;SDS011;10216;42.658;23.248;2023-12-20T07:45:28;7.53;;;6.40;;
20110;SDS011;10216;42.658;23.248;2023-12-20T07:47:53;8.53;;;7.20;;
20110;SDS011;10216;42.658;23.248;2023-12-20T07:50:19;10.40;;;8.97;;
20110;SDS011;10216;42.658;23.248;2023-12-20T07:52:44;10.93;;;6.40;;
20110;SDS011;10216;42.658;23.248;2023-12-20T07:55:10;12.90;;;8.00;;
20110;SDS011;10216;42.658;23.248;2023-12-20T07:57:35;62.00;;;31.73;;
20110;SDS011;10216;42.658;23.248;2023-12-20T08:00:00;11.17;;;6.87;;
20110;SDS011;10216;42.658;23.248;2023-12-20T08:02:25;7.20;;;6.53;;
20110;SDS011;10216;42.658;23.248;2023-12-20T08:04:51;14.20;;;9.17;;
20110;SDS011;10216;42.658;23.248;2023-12-20T08:07:16;9.13;;;7.80;;
20110;SDS011;10216;42.658;23.248;2023-12-20T08:09:41;8.07;;;6.30;;
20110;SDS011;10216;42.658;23.248;2023-12-20T08:12:08;7.10;;;6.40;;
20110;SDS011;10216;42.658;23.248;2023-12-20T08:14:34;15.43;;;9.17;;
20110;SDS011;10216;42.658;23.248;2023-12-20T08:16:59;15.60;;;6.20;;
20110;SDS011;10216;42.658;23.248;2023-12-20T08:19:25;7.87;;;7.07;;
20110;SDS011;10216;42.658;23.248;2023-12-20T08:21:50;6.57;;;5.27;;
20110;SDS011;10216;42.658;23.248;2023-12-20T08:24:15;12.10;;;6.57;;
20110;SDS011;10216;42.658;23.248;2023-12-20T08:26:41;9.37;;;8.30;;
20110;SDS011;10216;42.658;23.248;2023-12-20T08:29:06;13.67;;;6.67;;
20110;SDS011;10216;42.658;23.248;2023-12-20T08:31:31;10.80;;;7.60;;
20110;SDS011;10216;42.658;23.248;2023-12-20T08:33:57;9.03;;;6.57;;
20110;SDS011;10216;42.658;23.248;2023-12-20T08:36:22;7.60;;;7.00;;
20110;SDS011;10216;42.658;23.248;2023-12-20T08:38:48;16.27;;;8.07;;
20110;SDS011;10216;42.658;23.248;2023-12-20T08:41:14;8.67;;;7.87;;
20110;SDS011;10216;42.658;23.248;2023-12-20T08:43:39;6.03;;;4.63;;
20110;SDS011;10216;42.658;23.248;2023-12-20T08:46:05;13.57;;;10.20;;
20110;SDS011;10216;42.658;23.248;2023-12-20T08:48:30;5.00;;;3.73;;
20110;SDS011;10216;42.658;23.248;2023-12-20T08:50:56;10.30;;;6.87;;
20110;SDS011;10216;42.658;23.248;2023-12-20T08:53:21;16.77;;;7.83;;
20110;SDS011;10216;42.658;23.248;2023-12-20T08:55:46;10.07;;;7.00;;
20110;SDS011;10216;42.658;23.248;2023-12-20T08:58:12;14.10;;;6.17;;
20110;SDS011;10216;42.658;23.248;2023-12-20T09:00:37;8.67;;;5.60;;
20110;SDS011;10216;42.658;23.248;2023-12-20T09:03:03;14.40;;;6.50;;
20110;SDS011;10216;42.658;23.248;2023-12-20T09:05:29;15.77;;;10.10;;
20110;SDS011;10216;42.658;23.248;2023-12-20T09:07:55;18.30;;;8.37;;
20110;SDS011;10216;42.658;23.248;2023-12-20T09:10:20;10.83;;;7.00;;
20110;SDS011;10216;42.658;23.248;2023-12-20T09:12:53;8.60;;;6.77;;
20110;SDS011;10216;42.658;23.248;2023-12-20T09:15:25;30.37;;;8.77;;
20110;SDS011;10216;42.658;23.248;2023-12-20T09:17:50;17.90;;;7.20;;
20110;SDS011;10216;42.658;23.248;2023-12-20T09:20:16;10.50;;;7.37;;
20110;SDS011;10216;42.658;23.248;2023-12-20T09:22:41;18.63;;;8.83;;
20110;SDS011;10216;42.658;23.248;2023-12-20T09:25:07;21.87;;;9.63;;
20110;SDS011;10216;42.658;23.248;2023-12-20T09:27:33;17.97;;;8.33;;
20110;SDS011;10216;42.658;23.248;2023-12-20T09:29:58;6.93;;;4.87;;
20110;SDS011;10216;42.658;23.248;2023-12-20T09:32:23;7.50;;;6.67;;
20110;SDS011;10216;42.658;23.248;2023-12-20T09:34:49;11.30;;;6.57;;
20110;SDS011;10216;42.658;23.248;2023-12-20T09:37:14;8.20;;;5.63;;
20110;SDS011;10216;42.658;23.248;2023-12-20T09:39:39;11.13;;;7.53;;
20110;SDS011;10216;42.658;23.248;2023-12-20T09:42:05;14.13;;;6.53;;
20110;SDS011;10216;42.658;23.248;2023-12-20T09:44:31;15.87;;;9.87;;
20110;SDS011;10216;42.658;23.248;2023-12-20T09:46:57;17.80;;;9.13;;
20110;SDS011;10216;42.658;23.248;2023-12-20T09:49:23;19.27;;;8.47;;
20110;SDS011;10216;42.658;23.248;2023-12-20T09:51:51;15.67;;;8.70;;
20110;SDS011;10216;42.658;23.248;2023-12-20T09:54:17;11.67;;;8.30;;
20110;SDS011;10216;42.658;23.248;2023-12-20T09:56:43;15.27;;;8.90;;
20110;SDS011;10216;42.658;23.248;2023-12-20T09:59:08;10.73;;;8.27;;
20110;SDS011;10216;42.658;23.248;2023-12-20T10:01:34;13.10;;;8.90;;
20110;SDS011;10216;42.658;23.248;2023-12-20T10:04:00;9.97;;;5.97;;
20110;SDS011;10216;42.658;23.248;2023-12-20T10:06:27;18.63;;;11.00;;
20110;SDS011;10216;42.658;23.248;2023-12-20T10:08:52;8.70;;;6.93;;
20110;SDS011;10216;42.658;23.248;2023-12-20T10:11:18;13.47;;;8.87;;
20110;SDS011;10216;42.658;23.248;2023-12-20T10:13:44;12.20;;;8.67;;
20110;SDS011;10216;42.658;23.248;2023-12-20T10:16:12;15.23;;;9.57;;
20110;SDS011;10216;42.658;23.248;2023-12-20T10:18:37;13.97;;;10.23;;
20110;SDS011;10216;42.658;23.248;2023-12-20T10:21:03;11.97;;;7.87;;
20110;SDS011;10216;42.658;23.248;2023-12-20T10:23:28;14.57;;;10.27;;
20110;SDS011;10216;42.658;23.248;2023-12-20T10:25:57;8.03;;;6.93;;
20110;SDS011;10216;42.658;23.248;2023-12-20T10:28:23;16.43;;;9.47;;
20110;SDS011;10216;42.658;23.248;2023-12-20T10:30:52;13.53;;;9.47;;
20110;SDS011;10216;42.658;23.248;2023-12-20T10:33:24;15.37;;;8.50;;
20110;SDS011;10216;42.658;23.248;2023-12-20T10:35:50;16.30;;;10.67;;
20110;SDS011;10216;42.658;23.248;2023-12-20T10:38:16;14.10;;;7.53;;
20110;SDS011;10216;42.658;23.248;2023-12-20T10:40:41;16.37;;;10.67;;
20110;SDS011;10216;42.658;23.248;2023-12-20T10:43:08;11.47;;;9.27;;
20110;SDS011;10216;42.658;23.248;2023-12-20T10:45:33;18.87;;;13.03;;
20110;SDS011;10216;42.658;23.248;2023-12-20T10:47:59;13.93;;;9.23;;
20110;SDS011;10216;42.658;23.248;2023-12-20T10:50:25;22.37;;;11.87;;
20110;SDS011;10216;42.658;23.248;2023-12-20T10:52:51;7.70;;;7.00;;
20110;SDS011;10216;42.658;23.248;2023-12-20T10:55:20;9.20;;;7.63;;
20110;SDS011;10216;42.658;23.248;2023-12-20T10:57:46;14.27;;;10.93;;
20110;SDS011;10216;42.658;23.248;2023-12-20T11:00:16;10.70;;;8.13;;
20110;SDS011;10216;42.658;23.248;2023-12-20T11:02:42;16.80;;;10.80;;
20110;SDS011;10216;42.658;23.248;2023-12-20T11:08:11;11.50;;;9.77;;
20110;SDS011;10216;42.658;23.248;2023-12-20T11:13:37;14.20;;;11.67;;
20110;SDS011;10216;42.658;23.248;2023-12-20T11:15:54;15.50;;;9.80;;
20110;SDS011;10216;42.658;23.248;2023-12-20T11:18:20;12.93;;;10.20;;
20110;SDS011;10216;42.658;23.248;2023-12-20T11:20:45;15.13;;;9.00;;
20110;SDS011;10216;42.658;23.248;2023-12-20T11:23:10;12.53;;;10.50;;
20110;SDS011;10216;42.658;23.248;2023-12-20T11:28:16;18.73;;;10.03;;
20110;SDS011;10216;42.658;23.248;2023-12-20T11:30:45;25.43;;;17.33;;
20110;SDS011;10216;42.658;23.248;2023-12-20T11:33:12;22.10;;;16.47;;
20110;SDS011;10216;42.658;23.248;2023-12-20T11:35:37;31.80;;;18.73;;
20110;SDS011;10216;42.658;23.248;2023-12-20T11:38:04;38.60;;;20.87;;
20110;SDS011;10216;42.658;23.248;2023-12-20T11:40:32;30.20;;;19.70;;
20110;SDS011;10216;42.658;23.248;2023-12-20T11:42:58;31.40;;;20.33;;
20110;SDS011;10216;42.658;23.248;2023-12-20T11:45:24;47.47;;;28.67;;
20110;SDS011;10216;42.658;23.248;2023-12-20T11:47:50;52.60;;;29.53;;
20110;SDS011;10216;42.658;23.248;2023-12-20T11:50:20;57.37;;;32.17;;
20110;SDS011;10216;42.658;23.248;2023-12-20T11:52:45;56.97;;;33.57;;
20110;SDS011;10216;42.658;23.248;2023-12-20T11:55:11;54.33;;;32.10;;
20110;SDS011;10216;42.658;23.248;2023-12-20T11:57:36;59.13;;;34.20;;
20110;SDS011;10216;42.658;23.248;2023-12-20T12:00:02;53.33;;;33.60;;
20110;SDS011;10216;42.658;23.248;2023-12-20T12:02:28;54.50;;;33.53;;
20110;SDS011;10216;42.658;23.248;2023-12-20T12:04:53;55.80;;;35.23;;
20110;SDS011;10216;42.658;23.248;2023-12-20T12:07:18;66.43;;;36.53;;
20110;SDS011;10216;42.658;23.248;2023-12-20T12:09:44;61.63;;;36.47;;
20110;SDS011;10216;42.658;23.248;2023-12-20T12:12:09;64.00;;;36.17;;
20110;SDS011;10216;42.658;23.248;2023-12-20T12:14:35;63.50;;;37.23;;
20110;SDS011;10216;42.658;23.248;2023-12-20T12:17:02;54.97;;;36.47;;
20110;SDS011;10216;42.658;23.248;2023-12-20T12:19:27;60.43;;;35.73;;
20110;SDS011;10216;42.658;23.248;2023-12-20T12:22:09;63.63;;;33.37;;
20110;SDS011;10216;42.658;23.248;2023-12-20T12:24:42;56.30;;;33.80;;
20110;SDS011;10216;42.658;23.248;2023-12-20T12:27:07;61.07;;;36.03;;
20110;SDS011;10216;42.658;23.248;2023-12-20T12:29:33;62.33;;;36.67;;
20110;SDS011;10216;42.658;23.248;2023-12-20T12:31:59;59.60;;;35.83;;
20110;SDS011;10216;42.658;23.248;2023-12-20T12:34:24;61.97;;;34.70;;
20110;SDS011;10216;42.658;23.248;2023-12-20T12:36:52;58.13;;;34.70;;
20110;SDS011;10216;42.658;23.248;2023-12-20T12:39:17;60.43;;;36.53;;
20110;SDS011;10216;42.658;23.248;2023-12-20T12:41:43;53.23;;;35.20;;
20110;SDS011;10216;42.658;23.248;2023-12-20T12:44:08;62.97;;;37.57;;
20110;SDS011;10216;42.658;23.248;2023-12-20T12:46:34;63.57;;;36.50;;
20110;SDS011;10216;42.658;23.248;2023-12-20T12:48:59;67.27;;;38.37;;
20110;SDS011;10216;42.658;23.248;2023-12-20T12:51:25;68.97;;;38.27;;
20110;SDS011;10216;42.658;23.248;2023-12-20T12:53:50;63.50;;;36.37;;
20110;SDS011;10216;42.658;23.248;2023-12-20T12:56:15;60.87;;;34.17;;
20110;SDS011;10216;42.658;23.248;2023-12-20T12:58:41;54.23;;;32.50;;
20110;SDS011;10216;42.658;23.248;2023-12-20T13:01:06;59.27;;;31.80;;
20110;SDS011;10216;42.658;23.248;2023-12-20T13:03:31;52.47;;;27.03;;
20110;SDS011;10216;42.658;23.248;2023-12-20T13:05:57;49.13;;;25.73;;
20110;SDS011;10216;42.658;23.248;2023-12-20T13:08:22;49.87;;;23.70;;
20110;SDS011;10216;42.658;23.248;2023-12-20T13:10:47;27.73;;;18.20;;
20110;SDS011;10216;42.658;23.248;2023-12-20T13:13:13;16.43;;;13.37;;
20110;SDS011;10216;42.658;23.248;2023-12-20T13:15:38;17.70;;;12.60;;
20110;SDS011;10216;42.658;23.248;2023-12-20T13:18:04;26.23;;;12.50;;
20110;SDS011;10216;42.658;23.248;2023-12-20T13:20:31;19.47;;;14.20;;
20110;SDS011;10216;42.658;23.248;2023-12-20T13:22:56;14.33;;;10.67;;
20110;SDS011;10216;42.658;23.248;2023-12-20T13:25:21;20.47;;;14.50;;
20110;SDS011;10216;42.658;23.248;2023-12-20T13:27:47;20.30;;;12.90;;
20110;SDS011;10216;42.658;23.248;2023-12-20T13:30:12;19.30;;;11.87;;
20110;SDS011;10216;42.658;23.248;2023-12-20T13:32:38;20.73;;;11.50;;
20110;SDS011;10216;42.658;23.248;2023-12-20T13:35:03;14.47;;;11.27;;
20110;SDS011;10216;42.658;23.248;2023-12-20T13:37:29;13.90;;;10.60;;
20110;SDS011;10216;42.658;23.248;2023-12-20T13:39:54;20.23;;;11.37;;
20110;SDS011;10216;42.658;23.248;2023-12-20T13:42:20;14.60;;;10.37;;
20110;SDS011;10216;42.658;23.248;2023-12-20T13:44:45;20.13;;;10.23;;
20110;SDS011;10216;42.658;23.248;2023-12-20T13:47:12;17.90;;;11.67;;
20110;SDS011;10216;42.658;23.248;2023-12-20T13:49:37;19.93;;;10.10;;
20110;SDS011;10216;42.658;23.248;2023-12-20T13:52:02;19.27;;;12.33;;
20110;SDS011;10216;42.658;23.248;2023-12-20T13:54:29;14.00;;;9.90;;
20110;SDS011;10216;42.658;23.248;2023-12-20T13:56:54;13.57;;;9.30;;
20110;SDS011;10216;42.658;23.248;2023-12-20T13:59:19;12.47;;;10.33;;
20110;SDS011;10216;42.658;23.248;2023-12-20T14:01:45;15.30;;;9.03;;
20110;SDS011;10216;42.658;23.248;2023-12-20T14:04:10;13.73;;;9.53;;
20110;SDS011;10216;42.658;23.248;2023-12-20T14:06:36;12.60;;;9.77;;
20110;SDS011;10216;42.658;23.248;2023-12-20T14:09:02;11.50;;;8.83;;
20110;SDS011;10216;42.658;23.248;2023-12-20T14:11:28;15.50;;;9.23;;
20110;SDS011;10216;42.658;23.248;2023-12-20T14:13:53;16.90;;;12.60;;
20110;SDS011;10216;42.658;23.248;2023-12-20T14:16:23;13.03;;;9.33;;
20110;SDS011;10216;42.658;23.248;2023-12-20T14:18:48;15.57;;;12.53;;
20110;SDS011;10216;42.658;23.248;2023-12-20T14:21:14;17.50;;;11.57;;
20110;SDS011;10216;42.658;23.248;2023-12-20T14:23:39;18.63;;;11.43;;
20110;SDS011;10216;42.658;23.248;2023-12-20T14:26:04;23.63;;;10.63;;